sensor_id;sensor_type;location;lat;lon;timestamp;P1;durP1;ratioP1;P2;durP2;ratioP2
41861;SDS011;27537;57.134;-2.136;2023-04-24T00:02:10;27.10;;;5.93;;
41861;SDS011;27537;57.134;-2.136;2023-04-24T00:04:37;16.23;;;4.63;;
41861;SDS011;27537;57.134;-2.136;2023-04-24T00:07:07;19.25;;;5.63;;
41861;SDS011;27537;57.134;-2.136;2023-04-24T00:09:34;18.73;;;5.18;;
41861;SDS011;27537;57.134;-2.136;2023-04-24T00:12:00;20.80;;;4.85;;
41861;SDS011;27537;57.134;-2.136;2023-04-24T00:14:31;19.13;;;5.03;;
41861;SDS011;27537;57.134;-2.136;2023-04-24T00:16:58;16.65;;;4.63;;
41861;SDS011;27537;57.134;-2.136;2023-04-24T00:19:25;16.80;;;4.05;;
41861;SDS011;27537;57.134;-2.136;2023-04-24T00:21:51;15.65;;;4.35;;
41861;SDS011;27537;57.134;-2.136;2023-04-24T00:24:18;16.77;;;4.18;;
41861;SDS011;27537;57.134;-2.136;2023-04-24T00:26:45;18.48;;;4.18;;
41861;SDS011;27537;57.134;-2.136;2023-04-24T00:29:12;15.80;;;3.90;;
41861;SDS011;27537;57.134;-2.136;2023-04-24T00:31:39;10.65;;;3.40;;
41861;SDS011;27537;57.134;-2.136;2023-04-24T00:34:06;14.32;;;3.78;;
41861;SDS011;27537;57.134;-2.136;2023-04-24T00:36:34;13.18;;;3.17;;
41861;SDS011;27537;57.134;-2.136;2023-04-24T00:39:01;15.90;;;3.75;;
41861;SDS011;27537;57.134;-2.136;2023-04-24T00:41:28;12.07;;;3.35;;
41861;SDS011;27537;57.134;-2.136;2023-04-24T00:43:56;21.95;;;3.67;;
41861;SDS011;27537;57.134;-2.136;2023-04-24T00:46:23;15.30;;;3.45;;
41861;SDS011;27537;57.134;-2.136;2023-04-24T00:48:50;17.92;;;4.63;;
41861;SDS011;27537;57.134;-2.136;2023-04-24T00:51:16;13.48;;;3.80;;
41861;SDS011;27537;57.134;-2.136;2023-04-24T00:53:43;17.77;;;4.05;;
41861;SDS011;27537;57.134;-2.136;2023-04-24T00:56:10;22.88;;;4.80;;
41861;SDS011;27537;57.134;-2.136;2023-04-24T00:58:37;22.00;;;4.75;;
41861;SDS011;27537;57.134;-2.136;2023-04-24T01:01:04;17.83;;;4.22;;
41861;SDS011;27537;57.134;-2.136;2023-04-24T01:03:33;22.90;;;5.38;;
41861;SDS011;27537;57.134;-2.136;2023-04-24T01:06:03;16.42;;;4.63;;
41861;SDS011;27537;57.134;-2.136;2023-04-24T01:08:31;16.83;;;4.82;;
41861;SDS011;27537;57.134;-2.136;2023-04-24T01:11:00;21.38;;;4.85;;
41861;SDS011;27537;57.134;-2.136;2023-04-24T01:13:30;21.17;;;4.85;;
41861;SDS011;27537;57.134;-2.136;2023-04-24T01:15:58;23.30;;;5.50;;
41861;SDS011;27537;57.134;-2.136;2023-04-24T01:18:25;19.40;;;5.47;;
41861;SDS011;27537;57.134;-2.136;2023-04-24T01:20:56;31.00;;;5.53;;
41861;SDS011;27537;57.134;-2.136;2023-04-24T01:23:24;27.40;;;7.07;;
41861;SDS011;27537;57.134;-2.136;2023-04-24T01:25:51;27.15;;;4.95;;
41861;SDS011;27537;57.134;-2.136;2023-04-24T01:28:19;23.20;;;4.30;;
41861;SDS011;27537;57.134;-2.136;2023-04-24T01:30:46;17.65;;;5.07;;
41861;SDS011;27537;57.134;-2.136;2023-04-24T01:33:13;19.33;;;5.18;;
41861;SDS011;27537;57.134;-2.136;2023-04-24T01:35:39;26.63;;;4.88;;
41861;SDS011;27537;57.134;-2.136;2023-04-24T01:38:06;18.20;;;4.43;;
41861;SDS011;27537;57.134;-2.136;2023-04-24T01:40:33;25.20;;;4.80;;
41861;SDS011;27537;57.134;-2.136;2023-04-24T01:43:01;19.95;;;5.15;;
41861;SDS011;27537;57.134;-2.136;2023-04-24T01:45:28;17.80;;;4.43;;
41861;SDS011;27537;57.134;-2.136;2023-04-24T01:47:55;17.50;;;4.65;;
41861;SDS011;27537;57.134;-2.136;2023-04-24T01:50:22;21.42;;;5.28;;
41861;SDS011;27537;57.134;-2.136;2023-04-24T01:52:49;18.70;;;4.20;;
41861;SDS011;27537;57.134;-2.136;2023-04-24T01:55:16;19.50;;;3.67;;
41861;SDS011;27537;57.134;-2.136;2023-04-24T01:57:43;21.20;;;4.25;;
41861;SDS011;27537;57.134;-2.136;2023-04-24T02:00:09;14.30;;;3.42;;
41861;SDS011;27537;57.134;-2.136;2023-04-24T02:02:39;19.67;;;3.70;;
41861;SDS011;27537;57.134;-2.136;2023-04-24T02:05:08;13.10;;;3.75;;
41861;SDS011;27537;57.134;-2.136;2023-04-24T02:07:36;22.15;;;5.32;;
41861;SDS011;27537;57.134;-2.136;2023-04-24T02:10:03;18.60;;;3.53;;
41861;SDS011;27537;57.134;-2.136;2023-04-24T02:12:30;15.20;;;3.45;;
41861;SDS011;27537;57.134;-2.136;2023-04-24T02:14:57;20.10;;;4.13;;
41861;SDS011;27537;57.134;-2.136;2023-04-24T02:17:24;12.73;;;3.83;;
41861;SDS011;27537;57.134;-2.136;2023-04-24T02:19:51;24.42;;;4.47;;
41861;SDS011;27537;57.134;-2.136;2023-04-24T02:22:17;15.52;;;3.75;;
41861;SDS011;27537;57.134;-2.136;2023-04-24T02:24:44;14.27;;;3.75;;
41861;SDS011;27537;57.134;-2.136;2023-04-24T02:27:11;17.48;;;4.43;;
41861;SDS011;27537;57.134;-2.136;2023-04-24T02:29:38;21.48;;;3.80;;
41861;SDS011;27537;57.134;-2.136;2023-04-24T02:32:04;15.15;;;3.58;;
41861;SDS011;27537;57.134;-2.136;2023-04-24T02:34:31;12.20;;;2.80;;
41861;SDS011;27537;57.134;-2.136;2023-04-24T02:36:58;13.50;;;3.50;;
41861;SDS011;27537;57.134;-2.136;2023-04-24T02:39:25;20.50;;;3.17;;
41861;SDS011;27537;57.134;-2.136;2023-04-24T02:41:52;19.10;;;3.58;;
41861;SDS011;27537;57.134;-2.136;2023-04-24T02:44:18;12.85;;;3.03;;
41861;SDS011;27537;57.134;-2.136;2023-04-24T02:46:45;13.80;;;3.28;;
41861;SDS011;27537;57.134;-2.136;2023-04-24T02:49:12;11.90;;;2.97;;
41861;SDS011;27537;57.134;-2.136;2023-04-24T02:51:39;12.85;;;3.08;;
41861;SDS011;27537;57.134;-2.136;2023-04-24T02:54:08;11.30;;;2.95;;
41861;SDS011;27537;57.134;-2.136;2023-04-24T02:56:36;12.40;;;3.75;;
41861;SDS011;27537;57.134;-2.136;2023-04-24T02:59:03;11.82;;;3.50;;
41861;SDS011;27537;57.134;-2.136;2023-04-24T03:01:29;14.82;;;3.55;;
41861;SDS011;27537;57.134;-2.136;2023-04-24T03:03:57;18.08;;;3.40;;
41861;SDS011;27537;57.134;-2.136;2023-04-24T03:06:24;14.27;;;3.25;;
41861;SDS011;27537;57.134;-2.136;2023-04-24T03:08:53;14.45;;;3.13;;
41861;SDS011;27537;57.134;-2.136;2023-04-24T03:11:20;19.00;;;4.40;;
41861;SDS011;27537;57.134;-2.136;2023-04-24T03:13:47;15.20;;;4.65;;
41861;SDS011;27537;57.134;-2.136;2023-04-24T03:16:14;13.40;;;3.47;;
41861;SDS011;27537;57.134;-2.136;2023-04-24T03:18:41;16.35;;;3.58;;
41861;SDS011;27537;57.134;-2.136;2023-04-24T03:21:07;18.20;;;3.95;;
41861;SDS011;27537;57.134;-2.136;2023-04-24T03:23:34;21.60;;;4.80;;
41861;SDS011;27537;57.134;-2.136;2023-04-24T03:26:01;22.13;;;3.58;;
41861;SDS011;27537;57.134;-2.136;2023-04-24T03:28:28;16.90;;;3.30;;
41861;SDS011;27537;57.134;-2.136;2023-04-24T03:30:55;14.95;;;3.40;;
41861;SDS011;27537;57.134;-2.136;2023-04-24T03:33:22;21.55;;;5.78;;
41861;SDS011;27537;57.134;-2.136;2023-04-24T03:35:48;18.20;;;4.20;;
41861;SDS011;27537;57.134;-2.136;2023-04-24T03:38:15;18.20;;;4.20;;
41861;SDS011;27537;57.134;-2.136;2023-04-24T03:40:42;19.77;;;4.22;;
41861;SDS011;27537;57.134;-2.136;2023-04-24T03:43:08;19.30;;;3.70;;
41861;SDS011;27537;57.134;-2.136;2023-04-24T03:45:35;22.58;;;4.75;;
41861;SDS011;27537;57.134;-2.136;2023-04-24T03:48:02;14.68;;;3.50;;
41861;SDS011;27537;57.134;-2.136;2023-04-24T03:50:29;18.35;;;3.53;;
41861;SDS011;27537;57.134;-2.136;2023-04-24T03:52:55;13.95;;;4.25;;
41861;SDS011;27537;57.134;-2.136;2023-04-24T03:55:22;23.77;;;5.22;;
41861;SDS011;27537;57.134;-2.136;2023-04-24T03:57:49;15.60;;;4.40;;
41861;SDS011;27537;57.134;-2.136;2023-04-24T04:00:16;19.13;;;5.55;;
41861;SDS011;27537;57.134;-2.136;2023-04-24T04:02:42;16.48;;;2.97;;
41861;SDS011;27537;57.134;-2.136;2023-04-24T04:05:09;15.13;;;3.28;;
41861;SDS011;27537;57.134;-2.136;2023-04-24T04:07:36;18.80;;;4.53;;
41861;SDS011;27537;57.134;-2.136;2023-04-24T04:10:03;10.65;;;3.25;;
41861;SDS011;27537;57.134;-2.136;2023-04-24T04:12:30;16.00;;;3.28;;
41861;SDS011;27537;57.134;-2.136;2023-04-24T04:14:57;13.10;;;3.10;;
41861;SDS011;27537;57.134;-2.136;2023-04-24T04:17:23;19.10;;;3.85;;
41861;SDS011;27537;57.134;-2.136;2023-04-24T04:19:50;14.75;;;3.50;;
41861;SDS011;27537;57.134;-2.136;2023-04-24T04:22:17;18.77;;;3.20;;
41861;SDS011;27537;57.134;-2.136;2023-04-24T04:24:44;11.85;;;3.30;;
41861;SDS011;27537;57.134;-2.136;2023-04-24T04:27:12;18.63;;;4.20;;
41861;SDS011;27537;57.134;-2.136;2023-04-24T04:29:39;12.23;;;2.95;;
41861;SDS011;27537;57.134;-2.136;2023-04-24T04:32:06;15.20;;;4.00;;
41861;SDS011;27537;57.134;-2.136;2023-04-24T04:34:33;16.75;;;3.25;;
41861;SDS011;27537;57.134;-2.136;2023-04-24T04:37:00;11.20;;;2.72;;
41861;SDS011;27537;57.134;-2.136;2023-04-24T04:39:28;13.93;;;2.95;;
41861;SDS011;27537;57.134;-2.136;2023-04-24T04:41:55;14.13;;;2.47;;
41861;SDS011;27537;57.134;-2.136;2023-04-24T04:44:21;14.00;;;2.60;;
41861;SDS011;27537;57.134;-2.136;2023-04-24T04:46:49;13.68;;;2.50;;
41861;SDS011;27537;57.134;-2.136;2023-04-24T04:49:16;14.05;;;2.60;;
41861;SDS011;27537;57.134;-2.136;2023-04-24T04:51:43;10.50;;;2.95;;
41861;SDS011;27537;57.134;-2.136;2023-04-24T04:54:09;11.68;;;2.83;;
41861;SDS011;27537;57.134;-2.136;2023-04-24T04:56:36;10.90;;;2.70;;
41861;SDS011;27537;57.134;-2.136;2023-04-24T04:59:03;11.27;;;2.85;;
41861;SDS011;27537;57.134;-2.136;2023-04-24T05:01:30;10.93;;;2.65;;
41861;SDS011;27537;57.134;-2.136;2023-04-24T05:03:56;20.60;;;3.33;;
41861;SDS011;27537;57.134;-2.136;2023-04-24T05:06:23;12.55;;;3.15;;
41861;SDS011;27537;57.134;-2.136;2023-04-24T05:08:50;16.25;;;3.15;;
41861;SDS011;27537;57.134;-2.136;2023-04-24T05:11:17;8.10;;;2.65;;
41861;SDS011;27537;57.134;-2.136;2023-04-24T05:13:44;12.55;;;3.45;;
41861;SDS011;27537;57.134;-2.136;2023-04-24T05:16:11;9.52;;;2.63;;
41861;SDS011;27537;57.134;-2.136;2023-04-24T05:18:37;10.35;;;2.45;;
41861;SDS011;27537;57.134;-2.136;2023-04-24T05:21:04;18.02;;;5.53;;
41861;SDS011;27537;57.134;-2.136;2023-04-24T05:23:31;8.90;;;3.17;;
41861;SDS011;27537;57.134;-2.136;2023-04-24T05:25:58;11.90;;;3.42;;
41861;SDS011;27537;57.134;-2.136;2023-04-24T05:28:24;13.57;;;4.85;;
41861;SDS011;27537;57.134;-2.136;2023-04-24T05:30:54;13.55;;;3.10;;
41861;SDS011;27537;57.134;-2.136;2023-04-24T05:33:22;11.00;;;2.95;;
41861;SDS011;27537;57.134;-2.136;2023-04-24T05:35:49;14.88;;;3.42;;
41861;SDS011;27537;57.134;-2.136;2023-04-24T05:38:16;11.80;;;3.60;;
41861;SDS011;27537;57.134;-2.136;2023-04-24T05:40:46;16.15;;;3.22;;
41861;SDS011;27537;57.134;-2.136;2023-04-24T05:43:13;13.10;;;3.20;;
41861;SDS011;27537;57.134;-2.136;2023-04-24T05:45:39;14.63;;;3.85;;
41861;SDS011;27537;57.134;-2.136;2023-04-24T05:48:06;16.02;;;5.07;;
41861;SDS011;27537;57.134;-2.136;2023-04-24T05:50:33;16.65;;;4.10;;
41861;SDS011;27537;57.134;-2.136;2023-04-24T05:53:02;17.15;;;3.85;;
41861;SDS011;27537;57.134;-2.136;2023-04-24T05:55:30;19.85;;;4.43;;
41861;SDS011;27537;57.134;-2.136;2023-04-24T05:57:57;13.82;;;4.13;;
41861;SDS011;27537;57.134;-2.136;2023-04-24T06:00:25;15.05;;;3.67;;
41861;SDS011;27537;57.134;-2.136;2023-04-24T06:02:52;10.90;;;3.20;;
41861;SDS011;27537;57.134;-2.136;2023-04-24T06:05:22;13.55;;;4.03;;
41861;SDS011;27537;57.134;-2.136;2023-04-24T06:07:48;12.82;;;4.43;;
41861;SDS011;27537;57.134;-2.136;2023-04-24T06:10:15;14.20;;;3.67;;
41861;SDS011;27537;57.134;-2.136;2023-04-24T06:12:42;24.00;;;7.22;;
41861;SDS011;27537;57.134;-2.136;2023-04-24T06:15:09;20.75;;;3.45;;
41861;SDS011;27537;57.134;-2.136;2023-04-24T06:17:36;10.65;;;3.42;;
41861;SDS011;27537;57.134;-2.136;2023-04-24T06:20:03;9.68;;;2.50;;
41861;SDS011;27537;57.134;-2.136;2023-04-24T06:22:32;12.65;;;3.42;;
41861;SDS011;27537;57.134;-2.136;2023-04-24T06:24:59;12.18;;;3.20;;
41861;SDS011;27537;57.134;-2.136;2023-04-24T06:27:27;17.80;;;3.58;;
41861;SDS011;27537;57.134;-2.136;2023-04-24T06:29:53;14.50;;;3.42;;
41861;SDS011;27537;57.134;-2.136;2023-04-24T06:32:24;18.60;;;4.50;;
41861;SDS011;27537;57.134;-2.136;2023-04-24T06:34:51;16.25;;;5.85;;
41861;SDS011;27537;57.134;-2.136;2023-04-24T06:37:22;19.48;;;5.88;;
41861;SDS011;27537;57.134;-2.136;2023-04-24T06:39:49;17.25;;;3.95;;
41861;SDS011;27537;57.134;-2.136;2023-04-24T06:42:16;8.88;;;2.90;;
41861;SDS011;27537;57.134;-2.136;2023-04-24T06:44:42;12.18;;;2.75;;
41861;SDS011;27537;57.134;-2.136;2023-04-24T06:47:09;18.88;;;4.05;;
41861;SDS011;27537;57.134;-2.136;2023-04-24T06:49:37;12.65;;;3.00;;
41861;SDS011;27537;57.134;-2.136;2023-04-24T06:52:04;16.70;;;3.50;;
41861;SDS011;27537;57.134;-2.136;2023-04-24T06:54:31;14.05;;;3.00;;
41861;SDS011;27537;57.134;-2.136;2023-04-24T06:56:58;12.32;;;2.80;;
41861;SDS011;27537;57.134;-2.136;2023-04-24T06:59:27;24.30;;;3.90;;
41861;SDS011;27537;57.134;-2.136;2023-04-24T07:01:54;10.88;;;3.05;;
41861;SDS011;27537;57.134;-2.136;2023-04-24T07:04:21;17.65;;;3.03;;
41861;SDS011;27537;57.134;-2.136;2023-04-24T07:06:49;15.40;;;2.95;;
41861;SDS011;27537;57.134;-2.136;2023-04-24T07:09:17;14.23;;;3.78;;
41861;SDS011;27537;57.134;-2.136;2023-04-24T07:11:45;19.20;;;3.38;;
41861;SDS011;27537;57.134;-2.136;2023-04-24T07:14:12;12.82;;;3.05;;
41861;SDS011;27537;57.134;-2.136;2023-04-24T07:16:38;14.98;;;3.95;;
41861;SDS011;27537;57.134;-2.136;2023-04-24T07:19:06;17.08;;;3.45;;
41861;SDS011;27537;57.134;-2.136;2023-04-24T07:21:33;14.85;;;2.75;;
41861;SDS011;27537;57.134;-2.136;2023-04-24T07:24:00;13.27;;;3.40;;
41861;SDS011;27537;57.134;-2.136;2023-04-24T07:26:28;11.65;;;3.13;;
41861;SDS011;27537;57.134;-2.136;2023-04-24T07:28:56;13.60;;;2.92;;
41861;SDS011;27537;57.134;-2.136;2023-04-24T07:31:23;16.10;;;3.50;;
41861;SDS011;27537;57.134;-2.136;2023-04-24T07:33:50;17.73;;;4.57;;
41861;SDS011;27537;57.134;-2.136;2023-04-24T07:36:16;22.45;;;5.47;;
41861;SDS011;27537;57.134;-2.136;2023-04-24T07:38:45;18.27;;;3.95;;
41861;SDS011;27537;57.134;-2.136;2023-04-24T07:41:12;19.98;;;3.78;;
41861;SDS011;27537;57.134;-2.136;2023-04-24T07:43:40;17.45;;;4.10;;
41861;SDS011;27537;57.134;-2.136;2023-04-24T07:46:08;18.75;;;3.28;;
41861;SDS011;27537;57.134;-2.136;2023-04-24T07:48:36;15.75;;;3.88;;
41861;SDS011;27537;57.134;-2.136;2023-04-24T07:51:02;17.60;;;4.30;;
41861;SDS011;27537;57.134;-2.136;2023-04-24T07:53:29;23.75;;;4.50;;
41861;SDS011;27537;57.134;-2.136;2023-04-24T07:55:56;15.20;;;3.60;;
41861;SDS011;27537;57.134;-2.136;2023-04-24T07:58:23;21.58;;;4.45;;
41861;SDS011;27537;57.134;-2.136;2023-04-24T08:00:50;15.75;;;4.03;;
41861;SDS011;27537;57.134;-2.136;2023-04-24T08:03:17;13.00;;;3.38;;
41861;SDS011;27537;57.134;-2.136;2023-04-24T08:05:46;17.63;;;4.25;;
41861;SDS011;27537;57.134;-2.136;2023-04-24T08:08:13;13.77;;;3.17;;
41861;SDS011;27537;57.134;-2.136;2023-04-24T08:10:40;21.45;;;3.72;;
41861;SDS011;27537;57.134;-2.136;2023-04-24T08:13:07;12.60;;;3.10;;
41861;SDS011;27537;57.134;-2.136;2023-04-24T08:15:33;14.05;;;3.47;;
41861;SDS011;27537;57.134;-2.136;2023-04-24T08:18:00;16.92;;;3.83;;
41861;SDS011;27537;57.134;-2.136;2023-04-24T08:20:27;13.27;;;3.42;;
41861;SDS011;27537;57.134;-2.136;2023-04-24T08:22:54;21.08;;;3.47;;
41861;SDS011;27537;57.134;-2.136;2023-04-24T08:25:21;18.08;;;3.40;;
41861;SDS011;27537;57.134;-2.136;2023-04-24T08:27:49;14.35;;;2.70;;
41861;SDS011;27537;57.134;-2.136;2023-04-24T08:30:16;13.15;;;3.50;;
41861;SDS011;27537;57.134;-2.136;2023-04-24T08:32:44;13.60;;;2.80;;
41861;SDS011;27537;57.134;-2.136;2023-04-24T08:35:10;16.83;;;3.67;;
41861;SDS011;27537;57.134;-2.136;2023-04-24T08:37:37;11.50;;;3.05;;
41861;SDS011;27537;57.134;-2.136;2023-04-24T08:40:05;15.57;;;2.88;;
41861;SDS011;27537;57.134;-2.136;2023-04-24T08:42:37;13.68;;;3.95;;
41861;SDS011;27537;57.134;-2.136;2023-04-24T08:45:04;15.23;;;3.30;;
41861;SDS011;27537;57.134;-2.136;2023-04-24T08:47:32;14.13;;;3.42;;
41861;SDS011;27537;57.134;-2.136;2023-04-24T08:50:02;15.07;;;3.40;;
41861;SDS011;27537;57.134;-2.136;2023-04-24T08:52:32;14.30;;;3.08;;
41861;SDS011;27537;57.134;-2.136;2023-04-24T08:55:03;18.60;;;3.20;;
41861;SDS011;27537;57.134;-2.136;2023-04-24T08:57:30;19.23;;;3.20;;
41861;SDS011;27537;57.134;-2.136;2023-04-24T08:59:57;13.73;;;3.13;;
41861;SDS011;27537;57.134;-2.136;2023-04-24T09:02:24;12.82;;;3.03;;
41861;SDS011;27537;57.134;-2.136;2023-04-24T09:04:52;11.88;;;2.80;;
41861;SDS011;27537;57.134;-2.136;2023-04-24T09:07:19;14.93;;;4.13;;
41861;SDS011;27537;57.134;-2.136;2023-04-24T09:09:50;14.95;;;4.80;;
41861;SDS011;27537;57.134;-2.136;2023-04-24T09:12:18;15.15;;;3.08;;
41861;SDS011;27537;57.134;-2.136;2023-04-24T09:14:45;11.02;;;2.85;;
41861;SDS011;27537;57.134;-2.136;2023-04-24T09:17:12;15.48;;;3.15;;
41861;SDS011;27537;57.134;-2.136;2023-04-24T09:19:39;12.82;;;2.45;;
41861;SDS011;27537;57.134;-2.136;2023-04-24T09:22:07;13.57;;;3.53;;
41861;SDS011;27537;57.134;-2.136;2023-04-24T09:24:35;12.95;;;3.33;;
41861;SDS011;27537;57.134;-2.136;2023-04-24T09:27:02;13.25;;;3.20;;
41861;SDS011;27537;57.134;-2.136;2023-04-24T09:29:30;14.75;;;3.53;;
41861;SDS011;27537;57.134;-2.136;2023-04-24T09:31:58;12.05;;;2.50;;
41861;SDS011;27537;57.134;-2.136;2023-04-24T09:34:26;16.25;;;4.00;;
41861;SDS011;27537;57.134;-2.136;2023-04-24T09:36:53;16.02;;;4.00;;
41861;SDS011;27537;57.134;-2.136;2023-04-24T09:39:21;12.45;;;2.95;;
41861;SDS011;27537;57.134;-2.136;2023-04-24T09:44:24;15.77;;;3.42;;
41861;SDS011;27537;57.134;-2.136;2023-04-24T09:46:56;14.15;;;3.20;;
41861;SDS011;27537;57.134;-2.136;2023-04-24T09:49:30;13.98;;;3.67;;
41861;SDS011;27537;57.134;-2.136;2023-04-24T09:52:06;16.58;;;3.53;;
41861;SDS011;27537;57.134;-2.136;2023-04-24T09:54:35;16.25;;;3.42;;
41861;SDS011;27537;57.134;-2.136;2023-04-24T09:57:03;17.48;;;3.53;;
41861;SDS011;27537;57.134;-2.136;2023-04-24T09:59:30;13.68;;;2.80;;
41861;SDS011;27537;57.134;-2.136;2023-04-24T10:01:57;19.08;;;3.22;;
41861;SDS011;27537;57.134;-2.136;2023-04-24T10:04:26;10.60;;;2.50;;
41861;SDS011;27537;57.134;-2.136;2023-04-24T10:06:54;15.25;;;3.15;;
41861;SDS011;27537;57.134;-2.136;2023-04-24T10:09:24;12.55;;;2.50;;
41861;SDS011;27537;57.134;-2.136;2023-04-24T10:11:53;13.43;;;3.17;;
41861;SDS011;27537;57.134;-2.136;2023-04-24T10:14:24;16.05;;;3.38;;
41861;SDS011;27537;57.134;-2.136;2023-04-24T10:16:55;15.75;;;3.75;;
41861;SDS011;27537;57.134;-2.136;2023-04-24T10:19:25;13.40;;;2.95;;
41861;SDS011;27537;57.134;-2.136;2023-04-24T10:21:52;10.07;;;3.13;;
41861;SDS011;27537;57.134;-2.136;2023-04-24T10:24:20;16.05;;;3.42;;
41861;SDS011;27537;57.134;-2.136;2023-04-24T10:26:47;13.40;;;2.50;;
41861;SDS011;27537;57.134;-2.136;2023-04-24T10:29:16;23.92;;;3.97;;
41861;SDS011;27537;57.134;-2.136;2023-04-24T10:31:44;16.40;;;4.85;;
41861;SDS011;27537;57.134;-2.136;2023-04-24T10:34:14;11.27;;;2.53;;
41861;SDS011;27537;57.134;-2.136;2023-04-24T10:36:53;18.73;;;3.70;;
41861;SDS011;27537;57.134;-2.136;2023-04-24T10:39:23;7.55;;;2.17;;
41861;SDS011;27537;57.134;-2.136;2023-04-24T10:41:53;11.65;;;2.25;;
41861;SDS011;27537;57.134;-2.136;2023-04-24T10:44:23;9.82;;;2.63;;
41861;SDS011;27537;57.134;-2.136;2023-04-24T10:46:54;8.32;;;2.55;;
41861;SDS011;27537;57.134;-2.136;2023-04-24T10:49:29;9.13;;;2.20;;
41861;SDS011;27537;57.134;-2.136;2023-04-24T10:52:00;13.23;;;2.67;;
41861;SDS011;27537;57.134;-2.136;2023-04-24T11:00:10;7.57;;;2.53;;
41861;SDS011;27537;57.134;-2.136;2023-04-24T11:02:40;8.70;;;2.38;;
41861;SDS011;27537;57.134;-2.136;2023-04-24T11:05:15;7.68;;;1.98;;
41861;SDS011;27537;57.134;-2.136;2023-04-24T11:10:38;11.00;;;2.25;;
41861;SDS011;27537;57.134;-2.136;2023-04-24T11:13:21;8.65;;;2.10;;
41861;SDS011;27537;57.134;-2.136;2023-04-24T11:18:51;6.15;;;2.00;;
41861;SDS011;27537;57.134;-2.136;2023-04-24T11:21:21;9.23;;;2.30;;
41861;SDS011;27537;57.134;-2.136;2023-04-24T11:23:48;13.10;;;2.47;;
41861;SDS011;27537;57.134;-2.136;2023-04-24T11:26:17;7.95;;;1.88;;
41861;SDS011;27537;57.134;-2.136;2023-04-24T11:28:47;9.82;;;2.58;;
41861;SDS011;27537;57.134;-2.136;2023-04-24T11:31:37;13.32;;;3.42;;
41861;SDS011;27537;57.134;-2.136;2023-04-24T11:34:06;9.88;;;2.92;;
41861;SDS011;27537;57.134;-2.136;2023-04-24T11:36:38;8.57;;;2.30;;
41861;SDS011;27537;57.134;-2.136;2023-04-24T11:39:05;10.57;;;2.17;;
41861;SDS011;27537;57.134;-2.136;2023-04-24T11:41:33;11.77;;;2.38;;
41861;SDS011;27537;57.134;-2.136;2023-04-24T11:44:01;9.93;;;2.17;;
41861;SDS011;27537;57.134;-2.136;2023-04-24T11:46:30;13.73;;;2.70;;
41861;SDS011;27537;57.134;-2.136;2023-04-24T11:48:58;11.68;;;2.42;;
41861;SDS011;27537;57.134;-2.136;2023-04-24T11:51:30;12.48;;;2.15;;
41861;SDS011;27537;57.134;-2.136;2023-04-24T11:54:13;12.95;;;2.90;;
41861;SDS011;27537;57.134;-2.136;2023-04-24T11:56:44;8.75;;;1.70;;
41861;SDS011;27537;57.134;-2.136;2023-04-24T11:59:12;7.67;;;2.10;;
41861;SDS011;27537;57.134;-2.136;2023-04-24T12:01:44;4.43;;;1.55;;
41861;SDS011;27537;57.134;-2.136;2023-04-24T12:04:12;5.43;;;1.58;;
41861;SDS011;27537;57.134;-2.136;2023-04-24T12:06:40;10.82;;;2.00;;
41861;SDS011;27537;57.134;-2.136;2023-04-24T12:09:06;11.65;;;2.10;;
41861;SDS011;27537;57.134;-2.136;2023-04-24T12:11:52;8.25;;;1.75;;
41861;SDS011;27537;57.134;-2.136;2023-04-24T12:14:20;7.88;;;1.73;;
41861;SDS011;27537;57.134;-2.136;2023-04-24T12:16:48;12.93;;;2.17;;
41861;SDS011;27537;57.134;-2.136;2023-04-24T12:19:21;6.80;;;1.90;;
41861;SDS011;27537;57.134;-2.136;2023-04-24T12:22:04;9.82;;;1.92;;
41861;SDS011;27537;57.134;-2.136;2023-04-24T12:24:32;9.73;;;2.17;;
41861;SDS011;27537;57.134;-2.136;2023-04-24T12:26:59;12.25;;;2.00;;
41861;SDS011;27537;57.134;-2.136;2023-04-24T12:29:27;10.70;;;2.20;;
41861;SDS011;27537;57.134;-2.136;2023-04-24T12:31:54;11.63;;;2.90;;
41861;SDS011;27537;57.134;-2.136;2023-04-24T12:34:22;8.40;;;1.80;;
41861;SDS011;27537;57.134;-2.136;2023-04-24T12:36:51;10.48;;;2.83;;
41861;SDS011;27537;57.134;-2.136;2023-04-24T12:39:18;7.28;;;1.80;;
41861;SDS011;27537;57.134;-2.136;2023-04-24T12:41:55;9.18;;;2.13;;
41861;SDS011;27537;57.134;-2.136;2023-04-24T12:44:31;8.38;;;2.47;;
41861;SDS011;27537;57.134;-2.136;2023-04-24T12:49:29;8.77;;;2.13;;
41861;SDS011;27537;57.134;-2.136;2023-04-24T12:51:57;12.27;;;2.75;;
41861;SDS011;27537;57.134;-2.136;2023-04-24T12:54:24;10.32;;;2.45;;
41861;SDS011;27537;57.134;-2.136;2023-04-24T12:56:51;14.95;;;3.22;;
41861;SDS011;27537;57.134;-2.136;2023-04-24T12:59:17;12.75;;;3.03;;
41861;SDS011;27537;57.134;-2.136;2023-04-24T13:01:44;18.52;;;3.22;;
41861;SDS011;27537;57.134;-2.136;2023-04-24T13:04:11;9.45;;;2.30;;
41861;SDS011;27537;57.134;-2.136;2023-04-24T13:06:38;12.98;;;2.40;;
41861;SDS011;27537;57.134;-2.136;2023-04-24T13:09:05;10.77;;;2.40;;
41861;SDS011;27537;57.134;-2.136;2023-04-24T13:11:32;9.68;;;2.03;;
41861;SDS011;27537;57.134;-2.136;2023-04-24T13:13:58;11.20;;;2.38;;
41861;SDS011;27537;57.134;-2.136;2023-04-24T13:16:25;12.50;;;1.80;;
41861;SDS011;27537;57.134;-2.136;2023-04-24T13:18:52;10.13;;;2.00;;
41861;SDS011;27537;57.134;-2.136;2023-04-24T13:21:19;8.55;;;2.05;;
41861;SDS011;27537;57.134;-2.136;2023-04-24T13:23:45;7.00;;;1.95;;
41861;SDS011;27537;57.134;-2.136;2023-04-24T13:26:12;11.35;;;2.10;;
41861;SDS011;27537;57.134;-2.136;2023-04-24T13:28:39;21.25;;;2.85;;
41861;SDS011;27537;57.134;-2.136;2023-04-24T13:31:06;7.88;;;2.22;;
41861;SDS011;27537;57.134;-2.136;2023-04-24T13:33:33;11.95;;;2.38;;
41861;SDS011;27537;57.134;-2.136;2023-04-24T13:35:59;17.17;;;2.15;;
41861;SDS011;27537;57.134;-2.136;2023-04-24T13:38:26;9.23;;;1.73;;
41861;SDS011;27537;57.134;-2.136;2023-04-24T13:40:53;7.03;;;1.45;;
41861;SDS011;27537;57.134;-2.136;2023-04-24T13:43:20;9.40;;;1.67;;
41861;SDS011;27537;57.134;-2.136;2023-04-24T13:45:46;8.27;;;1.90;;
41861;SDS011;27537;57.134;-2.136;2023-04-24T13:48:13;6.03;;;1.70;;
41861;SDS011;27537;57.134;-2.136;2023-04-24T13:50:42;8.68;;;1.52;;
41861;SDS011;27537;57.134;-2.136;2023-04-24T13:53:09;4.97;;;1.40;;
41861;SDS011;27537;57.134;-2.136;2023-04-24T13:55:36;7.45;;;2.05;;
41861;SDS011;27537;57.134;-2.136;2023-04-24T13:58:03;9.25;;;1.77;;
41861;SDS011;27537;57.134;-2.136;2023-04-24T14:00:30;11.15;;;2.20;;
41861;SDS011;27537;57.134;-2.136;2023-04-24T14:02:57;12.70;;;3.85;;
41861;SDS011;27537;57.134;-2.136;2023-04-24T14:05:24;14.10;;;2.28;;
41861;SDS011;27537;57.134;-2.136;2023-04-24T14:07:51;13.38;;;3.00;;
41861;SDS011;27537;57.134;-2.136;2023-04-24T14:10:18;9.40;;;1.88;;
41861;SDS011;27537;57.134;-2.136;2023-04-24T14:12:45;11.43;;;2.15;;
41861;SDS011;27537;57.134;-2.136;2023-04-24T14:15:12;7.47;;;1.98;;
41861;SDS011;27537;57.134;-2.136;2023-04-24T14:17:39;11.65;;;1.80;;
41861;SDS011;27537;57.134;-2.136;2023-04-24T14:20:06;8.30;;;1.85;;
41861;SDS011;27537;57.134;-2.136;2023-04-24T14:22:33;11.20;;;1.77;;
41861;SDS011;27537;57.134;-2.136;2023-04-24T14:25:00;10.75;;;2.25;;
41861;SDS011;27537;57.134;-2.136;2023-04-24T14:27:27;9.82;;;2.08;;
41861;SDS011;27537;57.134;-2.136;2023-04-24T14:29:54;8.43;;;2.15;;
41861;SDS011;27537;57.134;-2.136;2023-04-24T14:32:21;7.82;;;1.63;;
41861;SDS011;27537;57.134;-2.136;2023-04-24T14:34:48;8.57;;;1.90;;
41861;SDS011;27537;57.134;-2.136;2023-04-24T14:37:16;13.63;;;2.00;;
41861;SDS011;27537;57.134;-2.136;2023-04-24T14:39:43;6.22;;;2.00;;
41861;SDS011;27537;57.134;-2.136;2023-04-24T14:42:21;11.57;;;2.05;;
41861;SDS011;27537;57.134;-2.136;2023-04-24T14:44:48;6.95;;;1.70;;